Time;durP1;ratioP1;P1;durP2;ratioP2;P2;SDS_P1;SDS_P2;PMS_P1;PMS_P2;Temp;Humidity;BMP_temperature;BMP_pressure;BME280_temperature;BME280_humidity;BME280_pressure;Samples;Min_cycle;Max_cycle;Signal;HPM_P1;HPM_P2
2023/05/16 00:03:26;;;;;;;12.70;10.30;;;;;;;8.82;85.56;99498.31;134209;1297;22449;-72
2023/05/16 00:06:39;;;;;;;16.00;12.50;;;;;;;8.73;85.46;99504.09;134242;1298;22408;-72
2023/05/16 00:09:49;;;;;;;14.70;12.60;;;;;;;8.69;85.83;99506.98;134099;1298;23374;-72
2023/05/16 00:12:53;;;;;;;37.90;11.80;;;;;;;8.67;85.87;99508.15;134186;1301;23263;-72
2023/05/16 00:19:30;;;;;;;17.90;13.00;;;;;;;8.54;85.99;99512.70;134101;1297;22528;-72
2023/05/16 00:22:33;;;;;;;18.20;11.40;;;;;;;8.48;85.93;99514.10;134239;1298;22622;-72
2023/05/16 00:25:47;;;;;;;9.50;8.60;;;;;;;8.41;86.02;99514.97;134245;1298;22168;-72
2023/05/16 00:29:01;;;;;;;13.20;10.50;;;;;;;8.36;85.89;99517.20;134217;1298;23272;-72
2023/05/16 00:32:13;;;;;;;16.00;12.00;;;;;;;8.31;86.02;99518.19;134214;1301;22393;-72
2023/05/16 00:35:14;;;;;;;24.10;11.10;;;;;;;8.27;86.13;99519.08;134096;1301;22392;-72
2023/05/16 00:38:18;;;;;;;16.40;12.00;;;;;;;8.26;86.04;99520.66;134222;1301;23368;-72
2023/05/16 00:41:28;;;;;;;14.00;10.40;;;;;;;8.23;85.99;99525.79;134238;1297;22400;-72
2023/05/16 00:44:56;;;;;;;21.90;11.20;;;;;;;8.17;86.02;99529.83;134231;1294;22251;-72
2023/05/16 00:48:09;;;;;;;27.90;11.30;;;;;;;8.13;86.43;99527.94;134243;1298;22363;-71
2023/05/16 00:51:21;;;;;;;15.20;13.30;;;;;;;8.08;86.57;99527.47;134095;1298;22437;-72
2023/05/16 00:54:36;;;;;;;78.50;14.10;;;;;;;8.05;86.56;99528.54;134228;1298;22396;-72
2023/05/16 00:58:38;;;;;;;59.70;13.60;;;;;;;7.99;86.51;99528.30;134214;1297;22239;-72
2023/05/16 01:01:55;;;;;;;17.30;12.30;;;;;;;7.91;86.63;99527.66;134057;1297;22236;-72
2023/05/16 01:05:01;;;;;;;15.50;13.80;;;;;;;7.82;86.79;99530.36;134135;1298;22477;-72
2023/05/16 01:08:06;;;;;;;15.90;14.20;;;;;;;7.75;86.87;99531.28;134251;1298;22237;-72
2023/05/16 01:11:46;;;;;;;;;;;;;;;;;;;;;
2023/05/16 01:15:34;;;;;;;;;;;;;;;;;;;;;
2023/05/16 01:19:37;;;;;;;;;;;;;;;;;;;;;
2023/05/16 01:23:28;;;;;;;16.70;14.80;;;;;;;7.59;87.01;99533.27;134235;1298;22389;-71
2023/05/16 01:27:05;;;;;;;;;;;;;;;;;;;;;
2023/05/16 01:30:42;;;;;;;16.50;13.20;;;;;;;7.52;87.22;99539.48;134107;1301;23504;-71
2023/05/16 01:34:15;;;;;;;;;;;;;;;;;;;;;
2023/05/16 01:38:23;;;;;;;15.20;11.50;;;;;;;7.47;86.66;99546.30;134160;1298;23116;-72
2023/05/16 01:42:16;;;;;;;;;;;;;;;;;;;;;
2023/05/16 01:45:48;;;;;;;28.70;12.90;;;;;;;7.39;86.64;99550.49;134234;1297;22138;-72
2023/05/16 01:49:16;;;;;;;;;;;;;;;;;;;;;
2023/05/16 01:53:10;;;;;;;14.40;10.60;;;;;;;7.29;86.97;99561.75;134241;1298;22424;-72
2023/05/16 01:57:04;;;;;;;14.90;13.40;;;;;;;7.26;87.56;99571.20;134134;1298;22218;-72
2023/05/16 02:01:20;;;;;;;;;;;;;;;;;;;;;
2023/05/16 02:04:40;;;;;;;;;;;;;;;;;;;;;
2023/05/16 02:07:59;;;;;;;17.90;15.20;;;;;;;7.15;88.13;99577.42;134219;1298;22543;-73
2023/05/16 02:11:24;;;;;;;25.40;16.80;;;;;;;7.17;88.49;99581.61;134159;1297;23206;-72
2023/05/16 02:14:39;;;;;;;26.10;19.30;;;;;;;7.21;88.72;99574.41;134231;1298;22449;-72
2023/05/16 02:18:12;;;;;;;;;;;;;;;;;;;;;
2023/05/16 02:22:14;;;;;;;19.10;16.40;;;;;;;7.28;88.57;99583.02;134226;1298;23059;-72
2023/05/16 02:25:51;;;;;;;23.70;17.60;;;;;;;7.33;88.83;99577.36;134204;1298;22469;-72
2023/05/16 02:28:57;;;;;;;18.70;16.70;;;;;;;7.37;88.92;99577.32;134135;1298;22366;-72
2023/05/16 02:32:32;;;;;;;20.50;17.10;;;;;;;7.41;88.92;99579.52;134255;1298;22388;-72
2023/05/16 02:36:34;;;;;;;20.40;17.70;;;;;;;7.45;88.92;99580.17;134121;1299;22375;-72
2023/05/16 02:39:39;;;;;;;12.50;11.10;;;;;;;7.49;89.10;99582.58;133984;1305;22248;-72
2023/05/16 02:43:13;;;;;;;16.70;14.70;;;;;;;7.52;89.08;99583.88;134294;1298;23092;-72
2023/05/16 02:46:37;;;;;;;19.40;16.00;;;;;;;7.53;89.18;99583.70;134227;1305;22549;-72
2023/05/16 02:49:46;;;;;;;18.70;15.20;;;;;;;7.54;89.04;99578.66;134209;1298;22767;-72
2023/05/16 02:53:01;;;;;;;18.60;16.10;;;;;;;7.55;89.08;99577.88;134081;1297;22390;-72
2023/05/16 02:56:56;;;;;;;;;;;;;;;;;;;;;
2023/05/16 03:00:49;;;;;;;29.30;19.70;;;;;;;7.58;89.36;99585.97;134225;1297;22361;-72
2023/05/16 03:04:14;;;;;;;21.60;18.80;;;;;;;7.60;89.45;99590.01;134101;1298;22582;-72
2023/05/16 03:07:37;;;;;;;;;;;;;;;;;;;;;
2023/05/16 03:10:52;;;;;;;21.30;17.00;;;;;;;7.70;89.83;99589.89;134248;1288;22369;-72
2023/05/16 03:14:03;;;;;;;19.00;16.10;;;;;;;7.75;89.70;99587.60;134134;1299;22405;-72
2023/05/16 03:17:35;;;;;;;;;;;;;;;;;;;;;
2023/05/16 03:20:41;;;;;;;25.20;20.40;;;;;;;7.85;89.70;99590.23;134264;1298;22250;-72
2023/05/16 03:23:49;;;;;;;24.10;20.10;;;;;;;7.90;89.86;99590.61;134292;1286;22350;-72
2023/05/16 03:27:10;;;;;;;22.60;18.90;;;;;;;7.91;89.75;99586.10;134271;1297;22440;-72
2023/05/16 03:30:12;;;;;;;20.20;17.50;;;;;;;7.88;89.82;99598.39;134240;1298;22530;-72
2023/05/16 03:33:28;;;;;;;21.80;19.40;;;;;;;7.89;90.06;99602.33;134265;1298;22419;-72
2023/05/16 03:36:36;;;;;;;23.20;18.70;;;;;;;7.96;90.25;99601.94;134240;1298;22244;-73
2023/05/16 03:40:23;;;;;;;21.40;18.30;;;;;;;8.09;90.46;99608.44;134234;1298;22416;-72
2023/05/16 03:43:55;;;;;;;;;;;;;;;;;;;;;
2023/05/16 03:47:29;;;;;;;21.90;19.20;;;;;;;8.54;90.81;99619.38;134245;1298;22363;-72
2023/05/16 03:50:36;;;;;;;19.00;16.90;;;;;;;8.82;90.48;99623.92;134235;1297;22370;-72
2023/05/16 03:54:05;;;;;;;20.60;16.40;;;;;;;8.87;89.78;99626.65;134258;1297;23416;-72
2023/05/16 03:57:15;;;;;;;16.80;13.80;;;;;;;9.06;90.03;99632.44;134246;1297;23100;-72
2023/05/16 04:00:59;;;;;;;16.70;14.80;;;;;;;9.39;89.93;99639.16;134267;1298;22365;-72
2023/05/16 04:04:26;;;;;;;11.80;10.60;;;;;;;9.79;89.58;99644.92;134200;1298;23165;-72
2023/05/16 04:07:30;;;;;;;15.20;13.20;;;;;;;10.20;89.49;99653.48;134105;1299;22390;-72
2023/05/16 04:11:28;;;;;;;16.80;13.20;;;;;;;10.65;89.34;99663.23;134245;1298;22424;-72
2023/05/16 04:14:38;;;;;;;15.70;13.90;;;;;;;11.02;88.61;99671.27;134272;1298;22442;-73
2023/05/16 04:21:29;;;;;;;16.80;12.30;;;;;;;11.56;87.51;99686.64;134250;1297;22400;-72
2023/05/16 04:25:23;;;;;;;15.20;12.80;;;;;;;11.85;87.35;99698.11;134260;1305;23360;-73
2023/05/16 04:30:03;;;;;;;14.40;11.90;;;;;;;12.23;86.90;99704.14;134263;1297;22157;-75
2023/05/16 04:33:50;;;;;;;15.20;12.60;;;;;;;12.24;85.21;99708.61;134000;1298;22436;-73
2023/05/16 04:37:19;;;;;;;16.00;13.20;;;;;;;12.10;85.31;99698.36;134093;1298;22254;-72
2023/05/16 04:41:04;;;;;;;14.40;12.00;;;;;;;12.14;85.28;99671.49;134228;1304;22607;-71
2023/05/16 04:45:10;;;;;;;;;;;;;;;;;;;;;
2023/05/16 04:48:31;;;;;;;16.10;11.00;;;;;;;13.17;85.44;99653.08;134031;1297;22393;-73
2023/05/16 04:52:43;;;;;;;15.70;11.50;;;;;;;13.67;84.68;99657.55;134147;1300;22250;-71
2023/05/16 04:55:49;;;;;;;16.90;12.70;;;;;;;14.30;84.02;99668.13;134100;1298;23107;-72
2023/05/16 05:03:26;;;;;;;16.10;11.70;;;;;;;15.43;82.07;99676.71;134227;1297;23185;-71
2023/05/16 05:11:28;;;;;;;16.40;10.30;;;;;;;16.38;79.78;99706.95;134253;1297;22488;-71
2023/05/16 05:14:59;;;;;;;;;;;;;;;;;;;;;
2023/05/16 05:18:47;;;;;;;;;;;;;;;;;;;;;
2023/05/16 05:23:08;;;;;;;11.30;8.30;;;;;;;16.72;75.95;99724.44;134168;1297;22442;-70
2023/05/16 05:31:07;;;;;;;;;;;;;;;;;;;;;
2023/05/16 05:35:17;;;;;;;;;;;;;;;;;;;;;
2023/05/16 05:38:58;;;;;;;11.20;7.80;;;;;;;16.99;74.36;99731.85;134147;1301;22407;-71
2023/05/16 06:00:20;;;;;;;;;;;;;;;;;;;;;
2023/05/16 06:03:52;;;;;;;9.00;8.00;;;;;;;17.05;70.55;99740.95;133979;1298;22361;-72
2023/05/16 06:11:50;;;;;;;;;;;;;;;;;;;;;
2023/05/16 06:15:54;;;;;;;9.90;8.00;;;;;;;17.52;70.27;99742.50;134283;1297;23110;-72
2023/05/16 06:24:05;;;;;;;;;;;;;;;;;;;;;
2023/05/16 06:32:05;;;;;;;9.50;8.40;;;;;;;17.52;69.10;99754.30;134101;1298;22481;-72
2023/05/16 06:40:16;;;;;;;;;;;;;;;;;;;;;
2023/05/16 06:44:33;;;;;;;;;;;;;;;;;;;;;
2023/05/16 06:48:54;;;;;;;;;;;;;;;;;;;;;
2023/05/16 06:53:06;;;;;;;;;;;;;;;;;;;;;
2023/05/16 06:56:47;;;;;;;11.40;7.70;;;;;;;18.17;66.86;99778.13;133995;1297;22232;-71
2023/05/16 07:04:54;;;;;;;;;;;;;;;;;;;;;
2023/05/16 07:17:27;;;;;;;8.10;6.90;;;;;;;19.24;64.18;99773.02;133927;1305;22425;-71
2023/05/16 07:21:06;;;;;;;8.90;6.60;;;;;;;19.30;64.03;99766.92;134286;1297;22378;-72
2023/05/16 07:25:28;;;;;;;;;;;;;;;;;;;;;
2023/05/16 07:29:55;;;;;;;7.60;6.90;;;;;;;19.85;63.11;99763.25;133964;1297;22770;-72
2023/05/16 07:37:11;;;;;;;;;;;;;;;;;;;;;
2023/05/16 07:41:50;;;;;;;8.80;5.90;;;;;;;20.41;61.54;99767.80;134090;1297;22211;-73
2023/05/16 07:49:42;;;;;;;;;;;;;;;;;;;;;
2023/05/16 07:54:18;;;;;;;8.80;6.60;;;;;;;20.76;59.77;99776.52;130250;1298;5380561;-72
2023/05/16 07:57:56;;;;;;;;;;;;;;;;;;;;;
2023/05/16 08:14:21;;;;;;;;;;;;;;;;;;;;;
2023/05/16 08:23:13;;;;;;;6.70;4.60;;;;;;;21.16;57.23;99806.67;134014;1298;23360;-72
2023/05/16 08:31:38;;;;;;;7.20;4.40;;;;;;;20.99;56.29;99813.02;133948;1297;22385;-73
2023/05/16 08:39:31;;;;;;;;;;;;;;;;;;;;;
2023/05/16 08:51:16;;;;;;;;;;;;;;;;;;;;;
2023/05/16 09:03:11;;;;;;;;;;;;;;;;;;;;;
2023/05/16 09:07:23;;;;;;;;;;;;;;;;;;;;;
2023/05/16 09:20:05;;;;;;;5.60;4.90;;;;;;;22.09;52.37;99854.45;134030;1298;22251;-72
2023/05/16 09:36:54;;;;;;;5.10;4.50;;;;;;;22.65;51.73;99858.02;134145;1297;22486;-72
2023/05/16 09:46:01;;;;;;;;;;;;;;;;;;;;;
2023/05/16 09:49:53;;;;;;;;;;;;;;;;;;;;;
2023/05/16 09:58:20;;;;;;;;;;;;;;;;;;;;;
2023/05/16 10:07:01;;;;;;;;;;;;;;;;;;;;;
2023/05/16 10:15:40;;;;;;;7.10;5.20;;;;;;;22.80;50.00;99900.93;134040;1297;22438;-72
2023/05/16 10:19:54;;;;;;;7.80;5.40;;;;;;;22.98;49.20;99896.56;134183;1301;22366;-72
2023/05/16 10:23:41;;;;;;;;;;;;;;;;;;;;;
2023/05/16 10:28:38;;;;;;;7.60;5.60;;;;;;;22.44;49.77;99886.59;134228;1297;22419;-72
2023/05/16 10:53:03;;;;;;;5.80;5.30;;;;;;;21.74;50.46;99899.36;134103;1298;23000;-73
2023/05/16 10:57:18;;;;;;;;;;;;;;;;;;;;;
2023/05/16 11:01:51;;;;;;;7.20;5.30;;;;;;;21.75;50.25;99899.17;134141;1297;22457;-72
2023/05/16 11:05:42;;;;;;;;;;;;;;;;;;;;;
2023/05/16 11:13:47;;;;;;;5.70;5.20;;;;;;;21.16;51.21;99887.66;134138;1298;23152;-72
2023/05/16 11:21:44;;;;;;;;;;;;;;;;;;;;;
2023/05/16 11:30:27;;;;;;;6.00;5.40;;;;;;;21.08;51.75;99885.02;134033;1298;22192;-72
2023/05/16 11:34:07;;;;;;;5.90;5.10;;;;;;;20.94;50.97;99884.40;134126;1298;22440;-72
2023/05/16 11:37:28;;;;;;;6.40;5.30;;;;;;;20.93;51.38;99880.70;134192;1298;22441;-72
2023/05/16 11:41:16;;;;;;;9.80;5.40;;;;;;;21.09;51.56;99874.52;134195;1299;23184;-72
2023/05/16 11:45:18;;;;;;;;;;;;;;;;;;;;;
2023/05/16 11:50:05;;;;;;;9.90;5.40;;;;;;;21.36;51.34;99866.48;133992;1297;22423;-73
2023/05/16 11:58:05;;;;;;;7.00;5.50;;;;;;;21.26;51.46;99871.53;134276;1294;22493;-72
2023/05/16 12:01:54;;;;;;;;;;;;;;;;;;;;;
2023/05/16 12:10:03;;;;;;;5.90;5.30;;;;;;;20.72;51.26;99879.69;134258;1297;22364;-73
2023/05/16 12:17:50;;;;;;;7.30;6.60;;;;;;;20.45;51.91;99878.04;134023;1305;22215;-72
2023/05/16 12:26:00;;;;;;;;;;;;;;;;;;;;;
2023/05/16 12:29:54;;;;;;;;;;;;;;;;;;;;;
2023/05/16 12:33:54;;;;;;;9.50;6.30;;;;;;;19.91;53.53;99890.14;134255;1297;23394;-72
2023/05/16 12:38:03;;;;;;;7.20;6.40;;;;;;;19.90;53.92;99893.80;134280;1297;23605;-72
2023/05/16 12:41:47;;;;;;;;;;;;;;;;;;;;;
2023/05/16 12:55:01;;;;;;;7.70;6.90;;;;;;;19.71;54.13;99889.66;134203;1297;22381;-74
2023/05/16 12:58:25;;;;;;;;;;;;;;;;;;;;;
2023/05/16 13:02:21;;;;;;;;;;;;;;;;;;;;;
2023/05/16 13:06:54;;;;;;;;;;;;;;;;;;;;;
2023/05/16 13:10:29;;;;;;;;;;;;;;;;;;;;;
2023/05/16 13:14:57;;;;;;;11.50;10.30;;;;;;;19.14;56.26;99899.53;134257;1297;22308;-72
2023/05/16 13:18:29;;;;;;;;;;;;;;;;;;;;;
2023/05/16 13:22:33;;;;;;;;;;;;;;;;;;;;;
2023/05/16 13:26:15;;;;;;;18.50;13.80;;;;;;;18.68;57.72;99907.38;134250;1298;22235;-72
2023/05/16 13:29:46;;;;;;;16.60;14.70;;;;;;;18.45;58.23;99912.80;134290;1297;23093;-74
2023/05/16 13:37:23;;;;;;;18.90;16.80;;;;;;;18.02;58.82;99916.69;134144;1297;22404;-72
2023/05/16 13:41:36;;;;;;;;;;;;;;;;;;;;;
2023/05/16 13:49:37;;;;;;;24.30;18.90;;;;;;;17.38;60.45;99924.98;134246;1297;23082;-72
2023/05/16 13:53:30;;;;;;;;;;;;;;;;;;;;;
2023/05/16 13:57:40;;;;;;;;;;;;;;;;;;;;;
2023/05/16 14:01:16;;;;;;;;;;;;;;;;;;;;;
2023/05/16 14:05:20;;;;;;;;;;;;;;;;;;;;;
2023/05/16 14:09:02;;;;;;;27.00;21.00;;;;;;;16.65;62.93;99928.05;134242;1298;22495;-72
2023/05/16 14:13:14;;;;;;;23.00;19.70;;;;;;;16.57;63.18;99929.68;134258;1298;23077;-72
2023/05/16 14:16:42;;;;;;;21.50;19.00;;;;;;;16.47;63.39;99932.21;134129;1298;22244;-72
2023/05/16 14:19:59;;;;;;;;;;;;;;;;;;;;;
2023/05/16 14:23:52;;;;;;;;;;;;;;;;;;;;;
2023/05/16 14:36:07;;;;;;;28.00;20.90;;;;;;;16.05;64.46;99915.73;134140;1297;22339;-72
2023/05/16 14:43:32;;;;;;;29.00;21.90;;;;;;;15.94;65.42;99918.83;134192;1297;22493;-72
2023/05/16 14:47:07;;;;;;;29.40;23.90;;;;;;;15.84;65.99;99915.25;134233;1298;23167;-73
2023/05/16 14:50:57;;;;;;;32.00;23.70;;;;;;;15.71;66.60;99917.26;134269;1305;22888;-71
2023/05/16 14:55:08;;;;;;;31.90;25.30;;;;;;;15.56;66.97;99917.64;134261;1295;22342;-71
2023/05/16 14:59:01;;;;;;;;;;;;;;;;;;;;;
2023/05/16 15:06:30;;;;;;;;;;;;;;;;;;;;;
2023/05/16 15:13:56;;;;;;;33.20;25.60;;;;;;;15.15;68.26;99932.80;134252;1298;22498;-71
2023/05/16 15:17:19;;;;;;;;;;;;;;;;;;;;;
2023/05/16 15:20:35;;;;;;;40.40;25.10;;;;;;;14.93;69.14;99950.27;134266;1298;22434;-72
2023/05/16 15:24:02;;;;;;;37.10;26.40;;;;;;;14.83;69.58;99962.48;134264;1298;22394;-71
2023/05/16 15:27:03;;;;;;;40.80;27.50;;;;;;;14.69;69.96;99965.56;134163;1298;23238;-72
2023/05/16 15:30:19;;;;;;;;;;;;;;;14.53;70.20;99966.56;134273;1298;23260;-72
2023/05/16 15:34:08;;;;;;;;;;;;;;;;;;;;;
2023/05/16 15:37:47;;;;;;;;;;;;;;;;;;;;;
2023/05/16 15:41:45;;;;;;;34.80;26.40;;;;;;;14.37;70.99;99972.41;134266;1298;22227;-71
2023/05/16 15:45:31;;;;;;;42.00;27.80;;;;;;;14.25;71.19;99974.00;134266;1298;23144;-71
2023/05/16 15:49:11;;;;;;;;;;;;;;;;;;;;;
2023/05/16 15:53:02;;;;;;;;;;;;;;;;;;;;;
2023/05/16 16:00:42;;;;;;;;;;;;;;;;;;;;;
2023/05/16 16:04:07;;;;;;;;;;;;;;;;;;;;;
2023/05/16 16:07:16;;;;;;;38.40;29.70;;;;;;;13.83;72.26;99985.84;134144;1298;22235;-71
2023/05/16 16:10:24;;;;;;;38.80;29.10;;;;;;;13.80;72.60;99981.11;134161;1298;22381;-71
2023/05/16 16:21:30;;;;;;;;;;;;;;;;;;;;;
2023/05/16 16:25:20;;;;;;;46.80;31.00;;;;;;;13.64;73.48;99991.95;134044;1298;22223;-71
2023/05/16 16:28:57;;;;;;;43.30;29.80;;;;;;;13.65;73.99;99987.43;134238;1298;22355;-71
2023/05/16 16:36:08;;;;;;;42.90;31.20;;;;;;;13.61;74.61;99992.39;134141;1298;22445;-71
2023/05/16 16:39:24;;;;;;;36.40;27.30;;;;;;;13.57;75.06;99988.30;134256;1297;22368;-71
2023/05/16 16:46:52;;;;;;;40.50;29.40;;;;;;;13.40;75.74;99994.61;134236;1301;22240;-71
2023/05/16 16:53:51;;;;;;;42.50;30.30;;;;;;;13.25;76.89;100001.17;134263;1297;22782;-72
2023/05/16 16:58:18;;;;;;;40.80;29.40;;;;;;;13.13;76.98;99998.36;134264;1297;22449;-73
2023/05/16 17:01:31;;;;;;;42.70;30.00;;;;;;;13.01;77.38;100005.83;134134;1297;22366;-75
2023/05/16 17:05:32;;;;;;;42.90;32.90;;;;;;;12.90;77.54;100008.81;134243;1298;23107;-72
2023/05/16 17:09:11;;;;;;;;;;;;;;;;;;;;;
2023/05/16 17:12:27;;;;;;;41.20;30.00;;;;;;;12.76;78.02;100019.77;134272;1298;22299;-72
2023/05/16 17:16:14;;;;;;;40.80;30.90;;;;;;;12.70;78.33;100023.63;134242;1301;22478;-72
2023/05/16 17:19:16;;;;;;;42.60;29.70;;;;;;;12.64;78.46;100025.35;134246;1302;22473;-71
2023/05/16 17:22:34;;;;;;;39.40;29.50;;;;;;;12.60;78.74;100030.29;134224;1298;22350;-73
2023/05/16 17:25:43;;;;;;;40.30;29.60;;;;;;;12.54;78.51;100028.88;134274;1294;22366;-72
2023/05/16 17:29:19;;;;;;;41.60;29.20;;;;;;;12.50;78.52;100038.19;134167;1298;23260;-71
2023/05/16 17:32:26;;;;;;;41.70;30.80;;;;;;;12.48;78.59;100050.48;134180;1299;23069;-71
2023/05/16 17:35:33;;;;;;;43.10;30.10;;;;;;;12.46;79.08;100051.48;134083;1299;22236;-72
2023/05/16 17:38:57;;;;;;;36.20;29.00;;;;;;;12.42;79.04;100054.77;134061;1304;22975;-72
2023/05/16 17:42:12;;;;;;;42.40;28.00;;;;;;;12.37;79.39;100055.18;134194;1299;22204;-72
2023/05/16 17:45:14;;;;;;;36.20;26.90;;;;;;;12.33;79.47;100054.98;134239;1298;23012;-71
2023/05/16 17:48:19;;;;;;;39.40;28.70;;;;;;;12.30;79.80;100059.94;134241;1301;22381;-72
2023/05/16 17:51:23;;;;;;;42.40;30.40;;;;;;;12.26;80.38;100060.40;134098;1294;22431;-72
2023/05/16 17:54:37;;;;;;;38.50;30.50;;;;;;;12.20;80.29;100056.83;134206;1298;23135;-71
2023/05/16 17:57:52;;;;;;;39.70;31.60;;;;;;;12.16;80.74;100062.94;134233;1297;22163;-72
2023/05/16 18:00:53;;;;;;;47.30;32.10;;;;;;;12.13;80.47;100064.23;134244;1298;22495;-72
2023/05/16 18:04:16;;;;;;;44.60;31.50;;;;;;;12.11;80.69;100061.95;134078;1301;22439;-71
2023/05/16 18:07:38;;;;;;;42.10;31.70;;;;;;;12.07;80.93;100059.73;134292;1298;22429;-72
2023/05/16 18:10:39;;;;;;;45.90;32.50;;;;;;;12.03;81.17;100059.02;134105;1298;22829;-72
2023/05/16 18:13:45;;;;;;;41.30;32.00;;;;;;;11.98;81.21;100064.67;134119;1298;22427;-71
2023/05/16 18:17:11;;;;;;;;;;;;;;;;;;;;;
2023/05/16 18:20:14;;;;;;;45.70;32.60;;;;;;;11.92;81.51;100065.25;134263;1301;22917;-71
2023/05/16 18:23:41;;;;;;;41.10;30.40;;;;;;;11.88;81.88;100063.14;134232;1298;22298;-73
2023/05/16 18:26:54;;;;;;;45.80;33.40;;;;;;;11.84;82.04;100064.91;134278;1299;22513;-72
2023/05/16 18:30:06;;;;;;;46.90;34.10;;;;;;;11.81;82.39;100066.62;134209;1302;22925;-71
2023/05/16 18:33:11;;;;;;;43.20;32.60;;;;;;;11.77;82.62;100065.91;134100;1298;22391;-71
2023/05/16 18:36:32;;;;;;;41.70;30.80;;;;;;;11.73;82.90;100067.89;134267;1298;22134;-72
2023/05/16 18:39:33;;;;;;;45.30;31.30;;;;;;;11.70;82.99;100069.27;134267;1297;22364;-72
2023/05/16 18:42:46;;;;;;;40.40;31.30;;;;;;;11.66;83.09;100074.27;134266;1298;22692;-72
2023/05/16 18:45:49;;;;;;;43.00;31.50;;;;;;;11.63;83.37;100072.66;134281;1298;22416;-71
2023/05/16 18:49:14;;;;;;;38.80;31.00;;;;;;;11.62;83.38;100074.49;134117;1298;23155;-72
2023/05/16 18:52:15;;;;;;;47.40;32.30;;;;;;;11.59;83.61;100076.61;134244;1298;22468;-71
2023/05/16 18:55:16;;;;;;;;;;;;;;;11.58;83.91;100085.88;134297;1298;22469;-71
2023/05/16 18:58:20;;;;;;;38.00;30.20;;;;;;;11.57;83.93;100088.98;134216;1298;23881;-72
2023/05/16 19:01:22;;;;;;;40.90;32.30;;;;;;;11.59;84.05;100088.61;134111;1304;23270;-73
2023/05/16 19:04:23;;;;;;;47.40;33.90;;;;;;;11.62;83.86;100092.91;134127;1298;22362;-71
2023/05/16 19:07:24;;;;;;;39.00;32.10;;;;;;;11.64;83.99;100099.70;134125;1301;22193;-71
2023/05/16 19:10:26;;;;;;;42.50;32.40;;;;;;;11.66;83.95;100109.55;134251;1298;22216;-71
2023/05/16 19:13:31;;;;;;;44.10;32.60;;;;;;;11.66;83.94;100115.99;134242;1298;22232;-73
2023/05/16 19:16:32;;;;;;;43.00;33.10;;;;;;;11.65;84.26;100117.70;134110;1298;23117;-72
2023/05/16 19:19:36;;;;;;;41.40;31.60;;;;;;;11.62;84.30;100119.65;133966;1298;22402;-72
2023/05/16 19:22:40;;;;;;;39.80;31.70;;;;;;;11.59;84.25;100126.99;134236;1297;23284;-72
2023/05/16 19:25:46;;;;;;;43.60;31.60;;;;;;;11.60;84.46;100128.19;134221;1298;23104;-72
2023/05/16 19:28:50;;;;;;;44.40;31.90;;;;;;;11.57;84.87;100124.59;134189;1297;22162;-72
2023/05/16 19:31:51;;;;;;;39.40;30.80;;;;;;;11.53;84.81;100125.60;134241;1298;22384;-74
2023/05/16 19:34:52;;;;;;;41.50;31.10;;;;;;;11.49;84.87;100121.09;134258;1298;23229;-72
2023/05/16 19:37:55;;;;;;;;;;;;;;;11.44;85.18;100122.84;134281;1297;23149;-71
2023/05/16 19:40:59;;;;;;;43.00;31.90;;;;;;;11.39;85.45;100129.08;134124;1298;22307;-71
2023/05/16 19:44:04;;;;;;;48.90;33.90;;;;;;;11.39;85.38;100134.86;134229;1305;23084;-73
2023/05/16 19:47:05;;;;;;;45.00;32.50;;;;;;;11.39;85.33;100144.14;134250;1297;22367;-71
2023/05/16 19:50:07;;;;;;;43.70;33.30;;;;;;;11.42;85.71;100150.70;134266;1298;22189;-72
2023/05/16 19:53:08;;;;;;;43.90;31.70;;;;;;;11.42;85.66;100157.33;132048;1298;2921996;-72
2023/05/16 19:56:18;;;;;;;43.40;32.80;;;;;;;11.40;85.84;100150.85;134099;1305;22234;-71
2023/05/16 19:59:39;;;;;;;43.10;31.40;;;;;;;11.41;85.90;100146.77;134233;1289;22446;-71
2023/05/16 20:03:08;;;;;;;46.50;33.60;;;;;;;11.40;86.06;100141.45;134231;1297;22347;-72
2023/05/16 20:06:53;;;;;;;;;;;;;;;;;;;;;
2023/05/16 20:10:28;;;;;;;45.30;34.20;;;;;;;11.28;86.58;100146.87;134022;1298;22352;-72
2023/05/16 20:13:44;;;;;;;45.50;34.70;;;;;;;11.23;86.75;100149.35;134211;1297;23269;-72
2023/05/16 20:16:51;;;;;;;50.20;32.70;;;;;;;11.18;87.04;100147.41;134217;1298;22525;-72
2023/05/16 20:20:06;;;;;;;48.70;35.60;;;;;;;11.12;87.63;100146.98;134007;1301;22157;-72
2023/05/16 20:23:36;;;;;;;46.50;34.10;;;;;;;11.07;87.67;100151.77;134247;1297;22219;-72
2023/05/16 20:27:25;;;;;;;51.80;35.00;;;;;;;11.04;87.87;100154.47;134209;1297;22360;-71
2023/05/16 20:30:49;;;;;;;41.70;31.50;;;;;;;11.01;87.95;100157.02;134219;1298;22366;-72
2023/05/16 20:34:13;;;;;;;45.70;32.80;;;;;;;10.99;88.47;100158.52;134150;1298;22379;-72
2023/05/16 20:37:47;;;;;;;46.90;31.90;;;;;;;10.97;88.45;100158.39;134165;1298;22465;-72
2023/05/16 20:40:48;;;;;;;37.70;27.90;;;;;;;10.96;88.50;100160.83;134215;1298;22361;-73
2023/05/16 20:44:19;;;;;;;;;;;;;;;;;;;;;
2023/05/16 20:47:54;;;;;;;38.90;27.90;;;;;;;10.94;88.95;100158.73;134197;1298;22537;-72
2023/05/16 20:51:24;;;;;;;41.30;28.20;;;;;;;10.93;89.07;100148.98;134204;1297;22421;-72
2023/05/16 20:55:10;;;;;;;37.80;27.50;;;;;;;10.89;89.23;100142.78;134198;1297;22437;-72
2023/05/16 20:58:42;;;;;;;37.00;25.80;;;;;;;10.84;89.18;100150.45;134243;1298;22338;-72
2023/05/16 21:01:53;;;;;;;34.00;25.50;;;;;;;10.77;89.10;100155.30;134226;1297;23188;-72
2023/05/16 21:05:58;;;;;;;32.80;23.10;;;;;;;10.69;88.70;100165.48;134218;1297;23166;-72
2023/05/16 21:09:22;;;;;;;35.20;23.70;;;;;;;10.62;88.79;100168.00;134179;1297;23326;-73
2023/05/16 21:12:42;;;;;;;33.80;24.00;;;;;;;10.57;89.17;100168.96;134236;1297;22234;-72
2023/05/16 21:16:34;;;;;;;;;;;;;;;;;;;;;
2023/05/16 21:19:48;;;;;;;37.40;25.80;;;;;;;10.47;89.14;100171.08;134026;1301;22524;-72
2023/05/16 21:23:14;;;;;;;35.30;25.60;;;;;;;10.43;89.67;100171.21;134254;1297;22359;-72
2023/05/16 21:27:07;;;;;;;36.80;23.40;;;;;;;10.37;89.68;100176.77;134230;1297;22431;-72
2023/05/16 21:30:31;;;;;;;31.30;24.20;;;;;;;10.32;89.94;100179.22;134208;1297;22377;-72
2023/05/16 21:34:16;;;;;;;40.20;26.90;;;;;;;10.29;89.65;100182.73;134222;1297;22600;-72
2023/05/16 21:38:02;;;;;;;;;;;;;;;;;;;;;
2023/05/16 21:41:32;;;;;;;36.90;24.60;;;;;;;10.26;89.97;100178.06;133968;1298;22992;-72
2023/05/16 21:45:14;;;;;;;;;;;;;;;;;;;;;
2023/05/16 21:49:34;;;;;;;36.20;26.00;;;;;;;10.22;90.04;100182.04;134207;1297;22423;-72
2023/05/16 21:53:17;;;;;;;32.50;24.50;;;;;;;10.21;90.07;100186.23;133944;1298;22444;-72
2023/05/16 21:56:21;;;;;;;30.20;22.40;;;;;;;10.19;90.51;100179.17;134202;1298;22231;-71
2023/05/16 21:59:57;;;;;;;30.30;23.30;;;;;;;10.17;90.26;100181.84;134215;1297;22387;-72
2023/05/16 22:03:38;;;;;;;31.60;21.90;;;;;;;10.17;90.33;100180.79;134215;1298;22389;-72
2023/05/16 22:06:52;;;;;;;26.70;20.80;;;;;;;10.13;90.34;100180.85;134211;1297;23065;-72
2023/05/16 22:11:27;;;;;;;30.00;22.30;;;;;;;10.11;90.21;100179.65;134227;1297;22143;-72
2023/05/16 22:15:25;;;;;;;;;;;;;;;;;;;;;
2023/05/16 22:18:48;;;;;;;27.10;20.50;;;;;;;10.09;90.12;100194.39;134096;1298;22434;-72
2023/05/16 22:22:42;;;;;;;;;;;;;;;;;;;;;
2023/05/16 22:26:36;;;;;;;;;;;;;;;;;;;;;
2023/05/16 22:35:00;;;;;;;34.50;22.20;;;;;;;10.01;90.47;100190.29;134090;1297;22344;-73
2023/05/16 22:38:58;;;;;;;;;;;;;;;;;;;;;
2023/05/16 22:42:18;;;;;;;;;;;;;;;;;;;;;
2023/05/16 22:45:55;;;;;;;26.00;19.60;;;;;;;9.94;90.59;100189.61;134202;1298;22379;-73
2023/05/16 22:48:58;;;;;;;29.80;21.50;;;;;;;9.90;90.50;100193.03;134142;1297;22407;-72
2023/05/16 22:56:59;;;;;;;27.50;21.40;;;;;;;9.88;90.40;100197.44;133982;1298;22465;-72
2023/05/16 23:00:08;;;;;;;29.80;21.00;;;;;;;9.89;90.42;100197.71;134145;1305;22391;-72
2023/05/16 23:04:13;;;;;;;29.90;21.80;;;;;;;9.89;90.47;100191.52;134210;1297;22390;-72
2023/05/16 23:07:32;;;;;;;26.10;19.20;;;;;;;9.88;90.52;100190.38;134176;1297;22381;-72
2023/05/16 23:11:03;;;;;;;;;;;;;;;;;;;;;
2023/05/16 23:15:08;;;;;;;;;;;;;;;;;;;;;
2023/05/16 23:18:40;;;;;;;28.70;20.90;;;;;;;9.80;91.02;100197.66;133952;1304;22259;-72
2023/05/16 23:22:04;;;;;;;;;;;;;;;;;;;;;
2023/05/16 23:26:11;;;;;;;;;;;;;;;;;;;;;
2023/05/16 23:29:55;;;;;;;;;;;;;;;;;;;;;
2023/05/16 23:37:32;;;;;;;28.30;21.00;;;;;;;9.70;91.13;100192.20;134214;1297;22226;-71
2023/05/16 23:41:19;;;;;;;;;;;;;;;;;;;;;
2023/05/16 23:45:02;;;;;;;26.80;20.70;;;;;;;9.73;91.00;100190.36;134168;1297;22463;-72
2023/05/16 23:48:09;;;;;;;29.30;21.60;;;;;;;9.72;90.86;100198.60;134221;1297;22236;-72
2023/05/16 23:51:21;;;;;;;29.00;21.80;;;;;;;9.72;90.75;100199.66;134217;1297;22228;-74